Time;durP1;ratioP1;P1;durP2;ratioP2;P2;SDS_P1;SDS_P2;PMS_P1;PMS_P2;Temp;Humidity;BMP_temperature;BMP_pressure;BME280_temperature;BME280_humidity;BME280_pressure;Samples;Min_cycle;Max_cycle;Signal;HPM_P1;HPM_P2
2022/09/09 00:00:22;;;;;;;5.60;5.00;;;13.70;99.90;;;;;;5052957;28;20479;-60
2022/09/09 00:02:58;;;;;;;5.73;5.13;;;13.70;99.90;;;;;;5052906;28;20459;-60
2022/09/09 00:05:30;;;;;;;5.60;5.10;;;13.70;99.90;;;;;;5053024;28;20432;-60
2022/09/09 00:08:03;;;;;;;6.30;5.27;;;13.70;99.90;;;;;;5052831;28;20475;-59
2022/09/09 00:10:33;;;;;;;4.77;4.37;;;13.70;99.90;;;;;;5052942;28;20436;-59
2022/09/09 00:13:09;;;;;;;14.30;4.20;;;13.60;99.90;;;;;;5053303;28;20539;-59
2022/09/09 00:15:41;;;;;;;5.47;5.00;;;13.60;99.90;;;;;;5052790;28;20926;-60
2022/09/09 00:18:16;;;;;;;7.43;4.83;;;13.60;99.90;;;;;;5052528;28;20499;-60
2022/09/09 00:20:50;;;;;;;4.90;4.17;;;13.60;99.90;;;;;;5052916;28;20434;-60
2022/09/09 00:23:25;;;;;;;5.20;4.27;;;13.60;99.90;;;;;;5052537;28;20871;-60
2022/09/09 00:26:00;;;;;;;5.37;3.83;;;13.50;99.90;;;;;;5052564;28;20454;-60
2022/09/09 00:28:30;;;;;;;4.80;4.40;;;13.60;99.90;;;;;;5052741;28;20468;-61
2022/09/09 00:31:02;;;;;;;3.50;3.20;;;13.50;99.90;;;;;;5052730;28;20448;-60
2022/09/09 00:33:32;;;;;;;3.87;3.20;;;13.50;99.90;;;;;;5052334;28;20897;-58
2022/09/09 00:36:00;;;;;;;5.13;3.13;;;13.60;99.90;;;;;;5052584;28;20498;-60
2022/09/09 00:38:33;;;;;;;2.77;2.47;;;13.60;99.90;;;;;;5052231;28;20460;-58
2022/09/09 00:41:08;;;;;;;3.47;3.17;;;13.50;99.90;;;;;;5052483;28;20431;-60
2022/09/09 00:43:37;;;;;;;4.37;2.90;;;13.50;99.90;;;;;;5052424;28;20913;-59
2022/09/09 00:46:40;;;;;;;3.10;2.50;;;13.50;99.90;;;;;;5052059;28;20794;-60
2022/09/09 00:49:20;;;;;;;2.33;2.13;;;13.50;99.90;;;;;;5053705;28;20469;-60
2022/09/09 00:51:57;;;;;;;2.70;2.50;;;13.50;99.90;;;;;;5056267;28;20434;-58
2022/09/09 00:54:38;;;;;;;3.00;2.60;;;13.50;99.90;;;;;;5056408;28;20420;-60
2022/09/09 00:57:14;;;;;;;2.53;2.33;;;13.50;99.90;;;;;;5056442;28;20471;-60
2022/09/09 00:59:48;;;;;;;2.93;2.40;;;13.50;99.90;;;;;;5056042;28;20435;-60
2022/09/09 01:02:27;;;;;;;5.60;2.50;;;13.40;99.90;;;;;;5056183;28;20439;-60
2022/09/09 01:04:54;;;;;;;2.20;2.00;;;13.40;99.90;;;;;;5055867;28;20464;-60
2022/09/09 01:07:21;;;;;;;2.70;2.20;;;13.40;99.90;;;;;;5056007;28;20464;-57
2022/09/09 01:09:57;;;;;;;2.50;2.30;;;13.40;99.90;;;;;;5056080;28;20814;-60
2022/09/09 01:12:35;;;;;;;2.83;2.20;;;13.40;99.90;;;;;;5055951;28;20526;-59
2022/09/09 01:15:09;;;;;;;3.00;2.73;;;13.40;99.90;;;;;;5055946;28;20431;-61
2022/09/09 01:17:47;;;;;;;2.33;1.73;;;13.40;99.90;;;;;;5055494;28;20475;-60
2022/09/09 01:20:17;;;;;;;2.33;2.10;;;13.40;99.90;;;;;;5055869;28;20438;-59
2022/09/09 01:22:54;;;;;;;2.17;1.97;;;13.40;99.90;;;;;;5056116;28;20476;-59
2022/09/09 01:25:29;;;;;;;4.10;2.13;;;13.40;99.90;;;;;;5055445;28;20845;-59
2022/09/09 01:28:00;;;;;;;4.30;1.80;;;13.40;99.90;;;;;;5055817;28;20456;-59
2022/09/09 01:30:28;;;;;;;4.20;1.80;;;13.40;99.90;;;;;;5055673;28;20428;-59
2022/09/09 01:32:58;;;;;;;2.90;2.20;;;13.40;99.90;;;;;;5055508;28;20444;-59
2022/09/09 01:35:35;;;;;;;3.57;1.90;;;13.40;99.90;;;;;;5055284;28;20935;-59
2022/09/09 01:38:02;;;;;;;2.60;2.10;;;13.40;99.90;;;;;;5055654;28;20456;-59
2022/09/09 01:40:29;;;;;;;2.00;1.77;;;13.50;99.90;;;;;;5055293;28;20451;-59
2022/09/09 01:42:57;;;;;;;1.70;1.60;;;13.50;99.90;;;;;;5055533;28;20448;-59
2022/09/09 01:45:25;;;;;;;1.77;1.67;;;13.50;99.90;;;;;;5055091;28;20990;-60
2022/09/09 01:47:53;;;;;;;2.83;1.50;;;13.50;99.90;;;;;;5054972;28;20471;-59
2022/09/09 01:50:20;;;;;;;1.77;1.47;;;13.50;99.90;;;;;;5055272;28;20813;-58
2022/09/09 01:52:50;;;;;;;2.17;2.07;;;13.50;99.90;;;;;;5055248;28;20455;-59
2022/09/09 01:55:21;;;;;;;4.20;1.90;;;13.40;99.90;;;;;;5054890;28;20956;-59
2022/09/09 01:57:56;;;;;;;2.47;2.10;;;13.40;99.90;;;;;;5055198;28;20464;-60
2022/09/09 02:00:25;;;;;;;1.80;1.70;;;13.40;99.90;;;;;;5055030;28;20435;-58
2022/09/09 02:03:01;;;;;;;2.60;1.53;;;13.40;99.90;;;;;;5055165;28;20466;-58
2022/09/09 02:05:36;;;;;;;3.70;1.50;;;13.40;99.90;;;;;;5054805;28;20975;-58
2022/09/09 02:08:07;;;;;;;2.20;1.57;;;13.30;99.90;;;;;;5054860;28;20468;-60
2022/09/09 02:10:43;;;;;;;3.40;1.50;;;13.30;99.90;;;;;;5054706;28;20531;-59
2022/09/09 02:13:12;;;;;;;3.77;1.90;;;13.30;99.90;;;;;;5054848;28;20777;-60
2022/09/09 02:15:46;;;;;;;1.53;1.40;;;13.30;99.90;;;;;;5054884;28;20444;-57
2022/09/09 02:18:16;;;;;;;1.53;1.43;;;13.30;99.90;;;;;;5093441;22;20487;-58
2022/09/09 02:20:45;;;;;;;2.53;1.87;;;13.40;99.90;;;;;;5074850;28;20441;-59
2022/09/09 02:23:15;;;;;;;4.13;1.90;;;13.40;99.90;;;;;;5074783;28;20439;-57
2022/09/09 02:25:44;;;;;;;1.60;1.50;;;13.40;99.90;;;;;;5074479;28;20823;-60
2022/09/09 02:28:13;;;;;;;6.10;1.70;;;13.40;99.90;;;;;;5074170;28;20471;-60
2022/09/09 02:30:43;;;;;;;2.40;1.40;;;13.40;99.90;;;;;;5074478;28;20427;-59
2022/09/09 02:33:12;;;;;;;3.17;2.00;;;13.40;99.90;;;;;;5074561;28;20794;-59
2022/09/09 02:35:40;;;;;;;3.50;2.10;;;13.40;99.90;;;;;;5074493;28;20452;-59
2022/09/09 02:38:13;;;;;;;4.33;2.17;;;13.40;99.90;;;;;;5074539;28;20467;-59
2022/09/09 02:40:39;;;;;;;1.83;1.60;;;13.40;99.90;;;;;;5074436;28;20431;-59
2022/09/09 02:43:06;;;;;;;2.10;1.33;;;13.50;99.90;;;;;;5073920;28;20957;-59
2022/09/09 02:45:41;;;;;;;1.93;1.50;;;13.50;99.90;;;;;;5074412;28;20507;-59
2022/09/09 02:48:15;;;;;;;2.80;1.70;;;13.50;99.90;;;;;;5074223;28;20573;-59
2022/09/09 02:50:51;;;;;;;2.40;1.60;;;13.50;99.90;;;;;;5074234;28;20442;-59
2022/09/09 02:53:20;;;;;;;3.47;1.70;;;13.60;99.90;;;;;;5074199;28;20432;-59
2022/09/09 02:55:49;;;;;;;4.20;1.77;;;13.60;99.90;;;;;;5074479;28;20806;-59
2022/09/09 02:58:18;;;;;;;2.77;1.67;;;13.60;99.90;;;;;;5079515;28;20463;-59
2022/09/09 03:00:46;;;;;;;3.33;1.90;;;13.60;99.90;;;;;;5080372;28;20446;-58
2022/09/09 03:03:16;;;;;;;4.33;2.40;;;13.70;99.90;;;;;;5080006;28;20453;-58
2022/09/09 03:05:43;;;;;;;3.33;1.60;;;13.70;99.90;;;;;;5080779;28;20478;-59
2022/09/09 03:08:09;;;;;;;2.40;1.70;;;13.70;99.90;;;;;;5078945;28;20459;-59
2022/09/09 03:10:37;;;;;;;1.70;1.60;;;13.70;99.90;;;;;;5074642;28;20439;-59
2022/09/09 03:13:05;;;;;;;3.57;1.73;;;13.80;99.90;;;;;;5075354;28;20501;-59
2022/09/09 03:15:32;;;;;;;4.20;1.80;;;13.80;99.90;;;;;;5076737;28;20976;-59
2022/09/09 03:17:59;;;;;;;1.73;1.60;;;13.80;99.90;;;;;;5076222;28;20487;-58
2022/09/09 03:20:28;;;;;;;2.10;1.60;;;13.90;99.90;;;;;;5076766;28;20443;-58
2022/09/09 03:22:56;;;;;;;3.80;1.60;;;13.90;99.90;;;;;;5077624;28;20569;-59
2022/09/09 03:25:24;;;;;;;3.33;1.70;;;14.00;99.90;;;;;;5075437;28;20475;-58
2022/09/09 03:27:54;;;;;;;1.87;1.53;;;14.00;99.90;;;;;;5074619;28;20477;-59
2022/09/09 03:30:21;;;;;;;4.53;1.90;;;14.00;99.90;;;;;;5073802;28;20457;-58
2022/09/09 03:32:47;;;;;;;2.37;1.80;;;14.00;99.90;;;;;;5074287;28;20439;-59
2022/09/09 03:35:15;;;;;;;2.37;1.57;;;14.10;99.90;;;;;;5073718;28;20538;-58
2022/09/09 03:37:43;;;;;;;2.13;2.00;;;14.10;99.90;;;;;;5073730;28;20474;-59
2022/09/09 03:40:11;;;;;;;2.37;1.40;;;14.10;99.90;;;;;;5073204;28;20966;-59
2022/09/09 03:42:38;;;;;;;1.63;1.53;;;14.10;99.90;;;;;;5073097;28;20934;-58
2022/09/09 03:45:08;;;;;;;2.90;1.50;;;14.10;99.90;;;;;;5073310;28;20475;-59
2022/09/09 03:47:35;;;;;;;2.23;1.40;;;14.10;99.90;;;;;;5073349;28;20865;-58
2022/09/09 03:50:03;;;;;;;3.60;2.20;;;14.10;99.90;;;;;;5073337;28;20459;-59
2022/09/09 03:52:30;;;;;;;3.70;1.60;;;14.10;99.90;;;;;;5073360;28;20538;-58
2022/09/09 03:54:58;;;;;;;6.93;2.33;;;14.10;99.90;;;;;;5073290;28;20445;-60
2022/09/09 03:57:25;;;;;;;2.30;1.50;;;14.10;99.90;;;;;;5073138;28;20979;-59
2022/09/09 03:59:52;;;;;;;2.60;1.80;;;14.20;99.90;;;;;;5072951;28;20945;-59
2022/09/09 04:02:19;;;;;;;4.83;2.20;;;14.20;99.90;;;;;;5074441;28;20447;-58
2022/09/09 04:04:45;;;;;;;2.70;1.70;;;14.20;99.90;;;;;;5074013;28;20494;-59
2022/09/09 04:10:13;;;;;;;5.13;1.93;;;14.30;99.90;;;;;;5091772;28;20537;-58
2022/09/09 04:12:40;;;;;;;3.60;2.20;;;14.30;99.90;;;;;;5091729;28;20965;-59
2022/09/09 04:15:07;;;;;;;8.07;2.20;;;14.30;99.90;;;;;;5091406;28;20454;-59
2022/09/09 04:17:36;;;;;;;2.60;2.27;;;14.20;99.90;;;;;;5090950;28;20524;-58
2022/09/09 04:20:03;;;;;;;5.33;1.93;;;14.30;99.90;;;;;;5090234;28;20454;-58
2022/09/09 04:22:30;;;;;;;4.93;2.10;;;14.30;99.90;;;;;;5090630;28;20523;-58
2022/09/09 04:24:56;;;;;;;4.90;2.23;;;14.30;99.90;;;;;;5090236;28;20442;-57
2022/09/09 04:27:25;;;;;;;3.73;2.27;;;14.30;99.90;;;;;;5090386;28;20485;-59
2022/09/09 04:29:51;;;;;;;4.63;2.03;;;14.30;99.90;;;;;;5090442;28;20474;-58
2022/09/09 04:32:18;;;;;;;3.80;2.03;;;14.30;99.90;;;;;;5090329;28;20447;-59
2022/09/09 04:34:47;;;;;;;2.40;2.10;;;14.40;99.90;;;;;;5090321;28;20450;-58
2022/09/09 04:37:14;;;;;;;4.43;1.80;;;14.30;99.90;;;;;;5090288;28;20861;-59
2022/09/09 04:39:41;;;;;;;5.03;2.20;;;14.40;99.90;;;;;;5090441;28;20445;-58
2022/09/09 04:42:08;;;;;;;2.10;1.93;;;14.40;99.90;;;;;;5089800;28;20910;-58
2022/09/09 04:44:36;;;;;;;2.10;1.90;;;14.40;99.90;;;;;;5090058;28;20456;-58
2022/09/09 04:47:03;;;;;;;2.23;1.83;;;14.40;99.90;;;;;;5090091;28;20500;-58
2022/09/09 04:49:31;;;;;;;3.20;1.63;;;14.50;99.90;;;;;;5090006;28;20474;-60
2022/09/09 04:51:58;;;;;;;2.50;2.30;;;14.50;99.90;;;;;;5090415;28;20484;-59
2022/09/09 04:54:25;;;;;;;5.47;2.20;;;14.50;99.90;;;;;;5090038;28;20434;-59
2022/09/09 04:56:52;;;;;;;4.20;1.97;;;14.50;99.90;;;;;;5089462;28;20969;-59
2022/09/09 04:59:18;;;;;;;2.80;2.07;;;14.60;99.90;;;;;;5089831;28;20442;-58
2022/09/09 05:01:47;;;;;;;2.83;1.80;;;14.60;99.90;;;;;;5090668;28;20438;-58
2022/09/09 05:04:15;;;;;;;2.47;2.03;;;14.60;99.90;;;;;;5091309;28;20460;-57
2022/09/09 05:06:42;;;;;;;4.10;1.90;;;14.70;99.90;;;;;;5090704;28;20449;-60
2022/09/09 05:09:08;;;;;;;2.83;1.73;;;14.70;99.90;;;;;;5090487;28;20482;-59
2022/09/09 05:11:36;;;;;;;4.40;2.40;;;14.70;99.90;;;;;;5089902;28;20451;-58
2022/09/09 05:14:03;;;;;;;2.47;1.87;;;14.70;99.90;;;;;;5089654;28;20541;-59
2022/09/09 05:16:30;;;;;;;3.33;1.90;;;14.80;99.90;;;;;;5089320;28;20961;-59
2022/09/09 05:18:58;;;;;;;2.70;1.80;;;14.80;99.90;;;;;;5089561;28;20449;-60
2022/09/09 05:21:28;;;;;;;2.40;1.67;;;14.80;99.90;;;;;;5076355;28;20822;-60
2022/09/09 05:23:54;;;;;;;2.50;2.00;;;14.90;99.90;;;;;;5076658;28;20463;-59
2022/09/09 05:26:23;;;;;;;4.10;2.20;;;14.90;99.90;;;;;;5076180;28;20443;-59
2022/09/09 05:28:50;;;;;;;3.60;2.00;;;14.90;99.90;;;;;;5076116;28;20545;-59
2022/09/09 05:31:19;;;;;;;3.40;2.20;;;14.90;99.90;;;;;;5079667;28;20447;-60
2022/09/09 05:33:47;;;;;;;2.43;2.07;;;15.00;99.90;;;;;;5075549;28;20486;-59
2022/09/09 05:36:17;;;;;;;5.30;2.07;;;15.00;99.90;;;;;;5075608;28;20479;-59
2022/09/09 05:38:45;;;;;;;3.60;1.70;;;15.00;99.90;;;;;;5075264;28;20460;-59
2022/09/09 05:41:15;;;;;;;3.37;1.93;;;15.10;99.90;;;;;;5075486;28;20542;-59
2022/09/09 05:43:44;;;;;;;2.93;2.03;;;15.10;99.90;;;;;;5075444;28;20436;-59
2022/09/09 05:46:12;;;;;;;2.23;1.80;;;15.10;99.90;;;;;;5076501;28;20485;-59
2022/09/09 05:48:41;;;;;;;3.83;2.37;;;15.10;99.90;;;;;;5075181;28;20530;-59
2022/09/09 05:51:11;;;;;;;3.93;2.10;;;15.20;99.90;;;;;;5075718;28;20451;-59
2022/09/09 05:53:40;;;;;;;2.00;1.80;;;15.20;99.90;;;;;;5075931;28;20482;-59
2022/09/09 05:56:09;;;;;;;2.77;1.80;;;15.20;99.90;;;;;;5075957;28;20486;-59
2022/09/09 05:58:37;;;;;;;2.47;1.90;;;15.20;99.90;;;;;;5078005;28;20467;-58
2022/09/09 06:01:06;;;;;;;3.27;2.17;;;15.20;99.90;;;;;;5079663;28;20455;-58
2022/09/09 06:03:33;;;;;;;3.43;2.07;;;15.30;99.90;;;;;;5075895;28;20965;-59
2022/09/09 06:06:01;;;;;;;3.33;1.87;;;15.40;99.90;;;;;;5075692;28;20451;-58
2022/09/09 06:08:28;;;;;;;4.53;2.80;;;15.40;99.90;;;;;;5074926;28;20479;-59
2022/09/09 06:11:03;;;;;;;3.50;2.00;;;15.50;99.90;;;;;;5075007;28;20451;-59
2022/09/09 06:13:31;;;;;;;2.67;1.80;;;15.50;99.90;;;;;;5075245;28;20431;-59
2022/09/09 06:15:58;;;;;;;3.90;2.60;;;15.60;99.90;;;;;;5075096;28;20454;-58
2022/09/09 06:18:25;;;;;;;4.30;2.27;;;15.60;99.90;;;;;;5075490;28;20493;-59
2022/09/09 06:21:00;;;;;;;3.00;2.37;;;15.70;99.90;;;;;;5074826;28;20447;-58
2022/09/09 06:23:27;;;;;;;3.20;2.03;;;15.70;99.90;;;;;;5074839;28;20445;-60
2022/09/09 06:26:05;;;;;;;3.67;2.50;;;15.70;99.90;;;;;;5074710;28;20451;-59
2022/09/09 06:28:32;;;;;;;3.53;2.30;;;15.70;99.90;;;;;;5074308;28;20477;-60
2022/09/09 06:30:59;;;;;;;3.63;2.07;;;15.80;99.90;;;;;;5074590;28;20449;-60
2022/09/09 06:33:27;;;;;;;5.27;1.90;;;15.90;99.90;;;;;;5073704;28;20950;-59
2022/09/09 06:35:56;;;;;;;3.60;2.20;;;16.00;99.90;;;;;;5074768;28;20530;-59
2022/09/09 06:38:23;;;;;;;9.43;2.60;;;16.00;99.90;;;;;;5075605;28;20486;-60
2022/09/09 06:40:54;;;;;;;4.30;2.47;;;16.10;99.90;;;;;;5076035;28;20448;-59
2022/09/09 06:43:22;;;;;;;4.80;2.23;;;16.20;99.90;;;;;;5076743;28;20445;-60
2022/09/09 06:45:56;;;;;;;2.60;1.90;;;16.20;99.90;;;;;;5076023;28;20543;-58
2022/09/09 06:48:23;;;;;;;6.07;2.60;;;16.30;99.90;;;;;;5076544;28;20467;-61
2022/09/09 06:51:17;;;;;;;3.37;2.60;;;16.40;99.90;;;;;;5077888;28;20483;-61
2022/09/09 06:53:45;;;;;;;3.67;2.30;;;16.40;99.90;;;;;;5075402;28;20458;-61
2022/09/09 06:56:21;;;;;;;3.23;2.30;;;16.60;99.90;;;;;;5075081;28;20444;-61
2022/09/09 06:58:51;;;;;;;3.27;2.00;;;16.70;99.90;;;;;;5075107;28;20459;-60
2022/09/09 07:01:20;;;;;;;3.03;1.97;;;16.90;99.90;;;;;;5075747;28;20477;-61
2022/09/09 07:03:49;;;;;;;3.60;2.07;;;17.20;99.90;;;;;;5076169;28;20443;-61
2022/09/09 07:06:18;;;;;;;4.70;1.83;;;17.40;99.90;;;;;;5077048;28;20496;-60
2022/09/09 07:08:48;;;;;;;2.40;1.57;;;17.60;99.90;;;;;;5082087;28;20514;-60
2022/09/09 07:11:15;;;;;;;6.27;2.43;;;17.80;99.90;;;;;;5081734;28;20428;-60
2022/09/09 07:13:42;;;;;;;2.90;1.83;;;18.00;99.90;;;;;;5078168;28;20435;-60
2022/09/09 07:16:12;;;;;;;4.30;1.77;;;18.10;99.90;;;;;;5076839;28;20451;-59
2022/09/09 07:18:40;;;;;;;3.40;2.00;;;18.30;99.90;;;;;;5076692;28;20459;-61
2022/09/09 07:21:08;;;;;;;2.50;1.83;;;18.40;99.90;;;;;;5074328;28;20973;-60
2022/09/09 07:23:35;;;;;;;3.53;1.87;;;18.50;99.90;;;;;;5074564;28;20977;-61
2022/09/09 07:26:02;;;;;;;3.30;1.70;;;18.70;99.90;;;;;;5074247;28;20443;-60
2022/09/09 07:28:30;;;;;;;3.57;1.77;;;18.80;99.90;;;;;;5074101;28;20474;-60
2022/09/09 07:30:58;;;;;;;2.00;1.13;;;18.80;99.90;;;;;;5075213;28;20483;-59
2022/09/09 07:33:27;;;;;;;6.73;1.83;;;18.90;99.90;;;;;;5073823;28;20942;-60
2022/09/09 07:35:54;;;;;;;3.47;1.77;;;19.00;99.90;;;;;;5073751;28;20444;-60
2022/09/09 07:38:22;;;;;;;5.23;2.23;;;19.00;99.90;;;;;;5073742;28;20498;-60
2022/09/09 07:40:49;;;;;;;3.57;2.10;;;19.10;99.90;;;;;;5073564;28;20875;-60
2022/09/09 07:43:17;;;;;;;4.07;1.83;;;19.10;99.90;;;;;;5073248;28;20454;-60
2022/09/09 07:45:44;;;;;;;3.87;1.60;;;19.00;99.90;;;;;;5073882;28;20439;-60
2022/09/09 07:48:10;;;;;;;3.13;1.70;;;19.00;99.90;;;;;;5074232;28;20467;-60
2022/09/09 07:50:39;;;;;;;3.10;1.80;;;19.00;99.90;;;;;;5074147;28;20486;-59
2022/09/09 07:53:06;;;;;;;4.33;2.00;;;19.00;99.90;;;;;;5073325;28;20961;-60
2022/09/09 07:55:33;;;;;;;7.03;2.20;;;19.10;99.90;;;;;;5074500;28;20505;-60
2022/09/09 07:57:59;;;;;;;3.83;1.70;;;19.10;99.90;;;;;;5073648;28;20467;-59
2022/09/09 08:00:27;;;;;;;5.70;1.80;;;19.20;99.90;;;;;;5073606;28;20456;-59
2022/09/09 08:02:54;;;;;;;2.87;1.97;;;19.30;99.90;;;;;;5073220;28;20494;-60
2022/09/09 08:05:22;;;;;;;4.90;1.90;;;19.30;99.90;;;;;;5075016;28;20447;-60
2022/09/09 08:07:50;;;;;;;3.13;2.00;;;19.50;99.90;;;;;;5073588;28;21007;-60
2022/09/09 08:10:17;;;;;;;3.70;1.40;;;19.60;99.90;;;;;;5075107;28;20463;-59
2022/09/09 08:12:44;;;;;;;6.90;1.60;;;19.70;99.90;;;;;;5073677;28;20942;-60
2022/09/09 08:15:12;;;;;;;3.90;1.63;;;19.90;99.90;;;;;;5074332;28;20447;-61
2022/09/09 08:20:09;;;;;;;2.17;1.20;;;20.50;99.90;;;;;;5032156;28;20969;-62
2022/09/09 08:22:37;;;;;;;3.20;1.50;;;20.70;99.90;;;;;;5032485;28;20811;-61
2022/09/09 08:25:08;;;;;;;4.80;1.50;;;20.90;99.90;;;;;;5032843;28;20438;-61
2022/09/09 08:27:35;;;;;;;3.07;1.90;;;21.00;99.90;;;;;;5032604;28;20489;-62
2022/09/09 08:30:01;;;;;;;3.33;1.87;;;21.10;99.90;;;;;;5032568;28;20483;-62
2022/09/09 08:32:29;;;;;;;3.37;1.57;;;21.10;99.90;;;;;;5032512;28;20452;-63
2022/09/09 08:34:55;;;;;;;2.87;2.33;;;21.10;99.90;;;;;;5032467;28;20859;-61
2022/09/09 08:37:22;;;;;;;4.27;1.43;;;21.00;99.90;;;;;;5032954;28;20447;-61
2022/09/09 08:39:49;;;;;;;2.37;1.20;;;20.90;99.90;;;;;;5033008;28;20471;-61
2022/09/09 08:42:33;;;;;;;6.60;1.63;;;20.70;99.90;;;;;;5032490;28;20451;-61
2022/09/09 08:45:22;;;;;;;4.43;1.33;;;20.70;99.90;;;;;;5033164;28;20501;-61
2022/09/09 08:48:02;;;;;;;6.27;1.43;;;20.80;99.90;;;;;;5022826;28;20538;-62
2022/09/09 08:50:33;;;;;;;2.90;1.13;;;20.80;99.90;;;;;;5032456;28;20934;-60
2022/09/09 08:53:05;;;;;;;4.83;1.50;;;20.80;99.90;;;;;;5032250;28;20935;-60
2022/09/09 08:55:42;;;;;;;2.17;1.27;;;20.70;99.50;;;;;;5034576;28;20531;-62
2022/09/09 08:58:15;;;;;;;2.13;1.27;;;20.80;99.40;;;;;;5036207;28;20465;-61
2022/09/09 09:00:53;;;;;;;3.63;1.23;;;20.80;98.90;;;;;;5036167;28;20427;-60
2022/09/09 09:03:29;;;;;;;5.77;1.63;;;20.90;98.50;;;;;;5036260;28;20459;-61
2022/09/09 09:06:05;;;;;;;2.40;1.23;;;21.00;98.10;;;;;;5035998;28;20431;-62
2022/09/09 09:08:40;;;;;;;6.20;2.00;;;21.10;97.70;;;;;;5035839;28;20984;-60
2022/09/09 09:11:07;;;;;;;4.50;1.20;;;21.20;97.00;;;;;;5035729;28;20996;-62
2022/09/09 09:13:44;;;;;;;2.07;1.40;;;21.30;96.50;;;;;;5035749;28;20459;-60
2022/09/09 09:16:18;;;;;;;2.87;1.30;;;21.40;95.90;;;;;;5035501;28;20492;-60
2022/09/09 09:18:45;;;;;;;6.33;2.50;;;21.40;95.50;;;;;;5035446;28;20880;-59
2022/09/09 09:21:18;;;;;;;4.90;1.73;;;21.50;95.00;;;;;;5035576;28;20455;-61
2022/09/09 09:23:55;;;;;;;3.37;1.17;;;21.60;94.60;;;;;;5035715;28;20471;-61
2022/09/09 09:26:26;;;;;;;3.10;1.80;;;21.60;93.80;;;;;;5035687;28;20434;-61
2022/09/09 09:28:57;;;;;;;2.40;1.50;;;21.70;93.60;;;;;;5035572;28;20545;-59
2022/09/09 09:31:25;;;;;;;3.83;1.40;;;21.70;93.00;;;;;;5035251;28;20466;-60
2022/09/09 09:33:54;;;;;;;2.47;1.30;;;21.70;92.70;;;;;;5035688;28;20458;-60
2022/09/09 09:36:21;;;;;;;2.80;1.43;;;21.80;92.10;;;;;;5035296;28;20448;-61
2022/09/09 09:38:57;;;;;;;2.73;1.50;;;21.90;91.70;;;;;;5035681;28;20480;-60
2022/09/09 09:41:35;;;;;;;3.83;1.53;;;22.10;91.10;;;;;;5035409;28;20448;-61
2022/09/09 09:44:04;;;;;;;2.70;1.17;;;22.40;90.50;;;;;;5035166;28;20811;-62
2022/09/09 09:46:32;;;;;;;3.30;1.90;;;22.60;89.40;;;;;;5035044;28;20501;-61
2022/09/09 09:49:00;;;;;;;4.70;1.67;;;22.80;88.10;;;;;;5035066;28;20990;-61
2022/09/09 09:51:29;;;;;;;4.20;2.00;;;23.00;87.20;;;;;;5035009;28;20476;-61
2022/09/09 09:54:10;;;;;;;3.23;1.50;;;23.20;85.80;;;;;;5035016;28;20449;-60
2022/09/09 09:56:37;;;;;;;4.73;3.40;;;23.20;84.40;;;;;;5034862;28;20472;-61
2022/09/09 09:59:05;;;;;;;3.73;1.57;;;23.40;83.50;;;;;;5034782;28;20475;-59
2022/09/09 10:01:34;;;;;;;2.90;1.70;;;23.50;82.30;;;;;;5034766;28;20445;-59
2022/09/09 10:04:03;;;;;;;3.53;1.43;;;23.60;81.70;;;;;;5034796;28;20795;-61
2022/09/09 10:06:34;;;;;;;6.60;1.77;;;23.70;80.70;;;;;;5034620;28;20449;-61
2022/09/09 10:09:02;;;;;;;4.90;1.87;;;23.90;79.10;;;;;;5034759;28;20481;-61
2022/09/09 10:11:45;;;;;;;3.13;1.20;;;23.80;78.00;;;;;;5034706;28;20508;-60
2022/09/09 10:14:21;;;;;;;3.93;2.13;;;23.50;77.50;;;;;;5034702;28;20434;-60
2022/09/09 10:17:02;;;;;;;4.60;1.30;;;23.30;78.70;;;;;;5034618;28;20435;-60
2022/09/09 10:19:33;;;;;;;2.30;1.20;;;23.10;78.10;;;;;;5034093;28;20847;-61
2022/09/09 10:22:08;;;;;;;3.60;1.83;;;22.80;78.40;;;;;;5034642;28;20509;-60
2022/09/09 10:25:11;;;;;;;2.47;1.73;;;22.60;78.80;;;;;;5034292;28;20909;-60
2022/09/09 10:27:49;;;;;;;4.40;1.63;;;22.40;79.20;;;;;;5034417;28;20433;-59
2022/09/09 10:30:20;;;;;;;4.20;1.60;;;22.40;79.40;;;;;;5033933;28;20490;-61
2022/09/09 10:32:51;;;;;;;3.40;1.40;;;22.40;79.30;;;;;;5034479;28;20935;-61
2022/09/09 10:35:30;;;;;;;4.10;1.83;;;22.20;79.50;;;;;;5034676;28;20441;-61
2022/09/09 10:38:11;;;;;;;5.20;2.03;;;22.10;79.80;;;;;;5033550;28;20559;-59
2022/09/09 10:40:42;;;;;;;6.00;2.33;;;22.00;80.30;;;;;;5033565;28;20422;-60
2022/09/09 10:43:17;;;;;;;4.60;1.97;;;21.90;80.60;;;;;;5033724;28;20437;-60
2022/09/09 10:45:56;;;;;;;2.83;1.93;;;21.80;80.80;;;;;;5034181;28;20548;-61
2022/09/09 10:48:37;;;;;;;3.07;2.07;;;21.70;81.40;;;;;;5033594;28;20471;-60
2022/09/09 10:51:15;;;;;;;2.73;1.80;;;21.70;81.70;;;;;;5034513;28;20525;-59
2022/09/09 10:53:53;;;;;;;2.60;1.67;;;21.70;81.70;;;;;;5033859;28;20443;-60
2022/09/09 10:56:25;;;;;;;2.70;1.63;;;21.60;81.70;;;;;;5034049;28;20904;-62
2022/09/09 10:58:57;;;;;;;3.10;1.70;;;21.50;82.20;;;;;;5033924;28;20978;-60
2022/09/09 11:01:29;;;;;;;2.30;1.40;;;21.40;82.50;;;;;;5034869;28;20443;-59
2022/09/09 11:04:02;;;;;;;4.50;1.77;;;21.40;82.50;;;;;;5035212;28;20857;-59
2022/09/09 11:06:36;;;;;;;3.70;2.20;;;21.40;83.00;;;;;;5034987;28;20446;-60
2022/09/09 11:09:06;;;;;;;4.27;1.50;;;21.50;83.50;;;;;;5035190;28;20477;-60
2022/09/09 11:11:37;;;;;;;6.17;3.37;;;21.50;83.90;;;;;;5035407;28;20483;-59
2022/09/09 11:14:12;;;;;;;3.43;1.63;;;21.40;84.70;;;;;;5036100;28;20439;-60
2022/09/09 11:16:47;;;;;;;5.13;2.30;;;21.20;85.90;;;;;;5034313;28;20430;-60
2022/09/09 11:19:21;;;;;;;3.40;1.50;;;21.00;87.60;;;;;;5033030;28;20557;-59
2022/09/09 11:21:50;;;;;;;4.73;2.10;;;20.80;89.50;;;;;;5033951;28;20467;-59
2022/09/09 11:24:24;;;;;;;3.40;1.50;;;20.70;90.40;;;;;;5033433;28;20452;-61
2022/09/09 11:26:55;;;;;;;2.23;1.93;;;20.60;91.30;;;;;;5033904;28;20434;-62
2022/09/09 11:29:53;;;;;;;2.47;1.60;;;20.40;92.10;;;;;;5033394;28;20475;-63
2022/09/09 11:32:51;;;;;;;5.00;1.77;;;20.20;93.50;;;;;;5033899;28;20477;-64
2022/09/09 11:35:41;;;;;;;4.33;2.20;;;19.90;95.30;;;;;;5034341;28;20941;-63
2022/09/09 11:38:25;;;;;;;4.80;2.07;;;19.70;97.30;;;;;;5030442;28;20561;-63
2022/09/09 11:40:59;;;;;;;2.20;1.57;;;19.40;98.90;;;;;;5034100;28;20428;-63
2022/09/09 11:43:31;;;;;;;2.80;1.20;;;19.10;99.80;;;;;;5034142;28;20438;-64
2022/09/09 11:46:02;;;;;;;3.43;1.20;;;18.80;99.90;;;;;;5033827;28;20936;-63
2022/09/09 11:48:34;;;;;;;3.13;1.37;;;18.50;99.90;;;;;;5033741;28;20555;-64
2022/09/09 11:51:05;;;;;;;2.40;1.40;;;18.10;99.90;;;;;;5034440;28;20505;-63
2022/09/09 11:53:32;;;;;;;2.63;1.37;;;17.70;99.90;;;;;;5034060;28;20433;-63
2022/09/09 11:56:05;;;;;;;5.03;1.40;;;17.40;99.90;;;;;;5033512;28;20459;-63
2022/09/09 11:58:38;;;;;;;3.30;1.30;;;17.20;99.90;;;;;;5032836;28;20476;-64
2022/09/09 12:01:15;;;;;;;2.03;1.57;;;17.00;99.90;;;;;;5033005;28;20799;-63
2022/09/09 12:03:48;;;;;;;2.50;1.30;;;16.90;99.90;;;;;;5033019;28;20439;-63
2022/09/09 12:06:20;;;;;;;3.67;1.33;;;16.80;99.90;;;;;;5033081;28;20432;-66
2022/09/09 12:08:52;;;;;;;2.03;1.70;;;16.70;99.90;;;;;;5032954;28;20910;-62
2022/09/09 12:11:27;;;;;;;4.77;2.43;;;16.70;99.90;;;;;;5032906;28;20466;-64
2022/09/09 12:13:55;;;;;;;2.63;1.33;;;16.70;99.90;;;;;;5032404;28;20480;-62
2022/09/09 12:16:32;;;;;;;4.23;2.20;;;16.80;99.90;;;;;;5033223;28;20944;-62
2022/09/09 12:19:17;;;;;;;2.63;2.40;;;16.80;99.90;;;;;;5032292;28;20484;-63
2022/09/09 12:21:52;;;;;;;8.77;3.40;;;16.90;99.90;;;;;;5038173;28;20425;-63
2022/09/09 12:24:26;;;;;;;6.60;2.80;;;17.00;99.90;;;;;;5038512;28;20433;-63
2022/09/09 12:27:00;;;;;;;5.23;2.60;;;17.30;99.90;;;;;;5038664;28;20922;-63
2022/09/09 12:29:37;;;;;;;2.60;1.47;;;17.60;99.90;;;;;;5037690;28;20576;-63
2022/09/09 12:32:10;;;;;;;4.60;2.07;;;18.10;99.90;;;;;;5042358;28;20465;-63
2022/09/09 12:34:41;;;;;;;3.53;1.60;;;18.50;99.90;;;;;;5041897;28;20433;-63
2022/09/09 12:37:19;;;;;;;4.10;2.80;;;18.80;99.90;;;;;;5041834;28;20479;-62
2022/09/09 12:39:50;;;;;;;4.17;1.63;;;19.30;99.90;;;;;;5039875;28;20471;-63
2022/09/09 12:42:18;;;;;;;3.70;1.90;;;19.80;99.90;;;;;;5042124;28;20479;-63
2022/09/09 12:44:56;;;;;;;2.83;1.40;;;20.30;99.90;;;;;;5043288;28;20454;-63
2022/09/09 12:47:28;;;;;;;1.67;1.13;;;20.80;99.90;;;;;;5043107;28;20794;-63
2022/09/09 12:49:57;;;;;;;3.37;1.80;;;21.10;99.90;;;;;;5042569;28;21050;-64
2022/09/09 12:52:29;;;;;;;2.50;2.13;;;21.40;99.20;;;;;;5038445;28;20542;-63
2022/09/09 12:55:00;;;;;;;2.30;1.10;;;21.60;98.30;;;;;;5038550;28;20422;-63
2022/09/09 12:57:30;;;;;;;3.43;1.60;;;21.80;97.10;;;;;;5036134;28;20797;-63
2022/09/09 13:00:07;;;;;;;2.50;1.13;;;21.80;96.10;;;;;;5036217;28;20462;-63
2022/09/09 13:02:35;;;;;;;2.50;1.10;;;21.80;95.50;;;;;;5037183;28;20433;-64
2022/09/09 13:05:16;;;;;;;1.60;1.50;;;21.60;95.20;;;;;;5036441;28;20457;-63
2022/09/09 13:07:43;;;;;;;3.13;1.50;;;21.50;95.40;;;;;;5036639;28;20486;-64
2022/09/09 13:10:13;;;;;;;3.60;2.10;;;21.60;95.70;;;;;;5035980;28;20456;-63
2022/09/09 13:12:41;;;;;;;3.43;1.67;;;21.70;95.60;;;;;;5036930;28;20897;-63